Capitol Logistics 338


KMIA
Miami International Airport
Miami, Florida, US
KAUS
Austin-Bergstrom International Airport
Austin, Texas, US

Route Details

Aircraft Information
Primary: Boeing 767-300BDSF
Backup: Not Available
Route Data
Distance: 990nm
Sched. Duration: 2h 45m
Avg. Duration: 2h 56m (+11m)
Times Flown: 4
Recm'd Route: WINCO2 WINCO J73 LBV BAGGS Q102 LEV J86 IAH BITER8
Planned Altitude: 38,000ft
Origin Wx: KMIA 260718Z 10004KT 10SM FEW017 BKN090 BKN250 24/24 A2989 RMK AO2 T02440239 $
Dest. Wx: KAUS 260736Z 13006KT 6SM -RA BR SCT008 BKN013 OVC018 23/22 A2988 RMK AO2 RAB0657E06B34 P0000 T02330222
Notes:

Financial History
Total Freight: 260,443lbs
Average Load: 65,111lbs/flt
Fuel Used: 96,441lbs
Avg. Fuel Used: 24,110lbs/flt
Fuel Expense: $119,780
Avg. Fuel Expense: $29,945
Avg. Fuel Cost: $1.24/lbs
Total Gross Income: $340,467
Pilot Pay: $706
Total Expenses: $36,978
Total Revenue: $181,095
Average Revenue: $85,116.74